createdAt,value
2023-02-24T00:01:41.522Z,5.0
2023-02-24T00:06:47.717Z,5.0
2023-02-24T00:11:53.920Z,5.0
2023-02-24T00:17:00.320Z,5.0
2023-02-24T00:22:06.332Z,5.0
2023-02-24T00:27:12.652Z,6.0
2023-02-24T00:32:18.973Z,5.0
2023-02-24T00:37:24.993Z,6.0
2023-02-24T00:42:31.178Z,6.0
2023-02-24T00:47:37.385Z,5.0
2023-02-24T00:52:43.598Z,5.0
2023-02-24T00:57:49.800Z,5.0
2023-02-24T01:02:56.012Z,5.0
2023-02-24T01:08:01.250Z,6.0
2023-02-24T01:13:07.485Z,5.0
2023-02-24T01:18:12.680Z,5.0
2023-02-24T01:23:18.923Z,5.0
2023-02-24T01:28:25.097Z,5.0
2023-02-24T01:33:31.305Z,5.0
2023-02-24T01:38:37.824Z,5.0
2023-02-24T01:43:43.732Z,5.0
2023-02-24T01:48:49.929Z,5.0
2023-02-24T01:53:56.138Z,5.0
2023-02-24T01:59:02.349Z,5.0
2023-02-24T02:04:08.556Z,4.0
2023-02-24T02:09:14.771Z,4.0
2023-02-24T02:14:20.978Z,5.0
2023-02-24T02:19:27.175Z,4.0
2023-02-24T02:24:33.386Z,4.0
2023-02-24T02:29:39.600Z,4.0
2023-02-24T02:34:45.797Z,4.0
2023-02-24T02:39:52.014Z,4.0
2023-02-24T02:44:58.211Z,4.0
2023-02-24T02:50:04.420Z,4.0
2023-02-24T02:55:10.653Z,4.0
2023-02-24T03:00:16.838Z,4.0
2023-02-24T03:05:22.082Z,4.0
2023-02-24T03:10:28.283Z,3.0
2023-02-24T03:15:33.504Z,3.0
2023-02-24T03:20:39.716Z,3.0
2023-02-24T03:25:45.928Z,4.0
2023-02-24T03:30:52.197Z,3.0
2023-02-24T03:35:58.410Z,4.0
2023-02-24T03:41:04.550Z,4.0
2023-02-24T03:46:10.851Z,4.0
2023-02-24T03:51:16.979Z,4.0
2023-02-24T03:56:23.175Z,4.0
2023-02-24T04:01:29.392Z,4.0
2023-02-24T04:06:35.588Z,4.0
2023-02-24T04:11:41.789Z,4.0
2023-02-24T04:16:48.002Z,4.0
2023-02-24T04:21:54.207Z,4.0
2023-02-24T04:27:00.425Z,5.0
2023-02-24T04:32:06.856Z,4.0
2023-02-24T04:37:12.828Z,5.0
2023-02-24T04:42:19.043Z,5.0
2023-02-24T04:47:25.252Z,4.0
2023-02-24T04:52:31.454Z,5.0
2023-02-24T04:57:37.673Z,5.0
2023-02-24T05:02:42.902Z,5.0
2023-02-24T05:07:49.108Z,5.0
2023-02-24T05:12:54.341Z,4.0
2023-02-24T05:18:00.557Z,5.0
2023-02-24T05:23:06.753Z,4.0
2023-02-24T05:28:12.960Z,4.0
2023-02-24T05:33:19.177Z,4.0
2023-02-24T05:38:25.375Z,4.0
2023-02-24T05:43:31.600Z,4.0
2023-02-24T05:48:37.784Z,4.0
2023-02-24T05:53:43.993Z,4.0
2023-02-24T05:58:50.235Z,4.0
2023-02-24T06:03:56.411Z,4.0
2023-02-24T06:09:02.622Z,4.0
2023-02-24T06:14:08.831Z,4.0
2023-02-24T06:19:17.483Z,4.0
2023-02-24T06:24:21.241Z,3.0
2023-02-24T06:29:27.470Z,3.0
2023-02-24T06:34:33.669Z,3.0
2023-02-24T06:39:39.870Z,3.0
2023-02-24T06:44:46.079Z,3.0
2023-02-24T06:49:52.288Z,3.0
2023-02-24T06:54:58.500Z,3.0
2023-02-24T07:00:03.733Z,3.0
2023-02-24T07:05:09.937Z,3.0
2023-02-24T07:10:16.139Z,3.0
2023-02-24T07:15:22.355Z,3.0
2023-02-24T07:20:28.557Z,3.0
2023-02-24T07:25:34.769Z,3.0
2023-02-24T07:30:41.196Z,2.0
2023-02-24T07:35:47.341Z,3.0
2023-02-24T07:40:53.395Z,2.5
2023-02-24T07:45:59.849Z,3.0
2023-02-24T07:51:05.793Z,3.0
2023-02-24T07:56:12.018Z,3.0
2023-02-24T08:01:18.383Z,2.0
2023-02-24T08:06:24.440Z,2.5
2023-02-24T08:11:30.811Z,2.0
2023-02-24T08:16:36.835Z,2.0
2023-02-24T08:21:43.038Z,2.0
2023-02-24T08:26:49.257Z,3.0
2023-02-24T08:31:55.579Z,2.0
2023-02-24T08:37:01.681Z,2.0
2023-02-24T08:42:07.878Z,2.0
2023-02-24T08:47:13.114Z,2.0
2023-02-24T08:52:19.319Z,2.0
2023-02-24T08:57:24.575Z,2.0
2023-02-24T09:02:30.763Z,2.0
2023-02-24T09:07:36.993Z,2.0
2023-02-24T09:12:43.182Z,2.0
2023-02-24T09:17:49.393Z,2.0
2023-02-24T09:22:55.597Z,2.0
2023-02-24T09:28:01.809Z,2.0
2023-02-24T09:33:08.205Z,3.0
2023-02-24T09:38:14.220Z,3.0
2023-02-24T09:43:20.455Z,3.0
2023-02-24T09:48:26.641Z,3.0
2023-02-24T09:53:32.841Z,2.0
2023-02-24T09:58:44.005Z,3.0
2023-02-24T10:03:45.261Z,2.0
2023-02-24T10:08:51.801Z,2.0
2023-02-24T10:14:03.368Z,2.0
2023-02-24T10:19:03.888Z,3.0
2023-02-24T10:24:10.097Z,3.0
2023-02-24T10:29:18.533Z,2.0
2023-02-24T10:34:23.985Z,2.0
2023-02-24T10:39:27.731Z,2.0
2023-02-24T10:44:32.963Z,3.0
2023-02-24T10:49:39.183Z,3.0
2023-02-24T10:54:45.399Z,3.0
2023-02-24T10:59:50.641Z,3.0
2023-02-24T11:04:57.163Z,3.0
2023-02-24T11:10:03.041Z,3.0
2023-02-24T11:15:09.248Z,3.0
2023-02-24T11:20:15.445Z,3.0
2023-02-24T11:25:21.671Z,3.5
2023-02-24T11:30:28.276Z,3.0
2023-02-24T11:35:34.071Z,3.0
2023-02-24T11:40:40.311Z,4.0
2023-02-24T11:45:46.486Z,3.0
2023-02-24T11:50:52.700Z,4.0
2023-02-24T11:55:59.343Z,4.0
2023-02-24T12:01:05.168Z,4.0
2023-02-24T12:06:11.331Z,4.0
2023-02-24T12:11:17.522Z,4.0
2023-02-24T12:16:23.871Z,4.0
2023-02-24T12:21:29.928Z,5.0
2023-02-24T12:26:36.149Z,5.0
2023-02-24T12:31:42.534Z,5.0
2023-02-24T12:36:48.561Z,6.0
2023-02-24T12:41:54.767Z,5.0
2023-02-24T12:47:00.010Z,5.0
2023-02-24T12:52:06.361Z,5.0
2023-02-24T12:57:11.451Z,5.0
2023-02-24T13:02:17.716Z,5.0
2023-02-24T13:07:23.872Z,6.0
2023-02-24T13:12:30.258Z,5.0
2023-02-24T13:17:36.837Z,5.5
2023-02-24T13:22:42.506Z,5.0
2023-02-24T13:27:48.700Z,5.0
2023-02-24T13:32:55.099Z,5.0
2023-02-24T13:38:01.102Z,5.0
2023-02-24T13:43:07.320Z,5.0
2023-02-24T13:48:13.560Z,6.0
2023-02-24T13:53:19.820Z,5.0
2023-02-24T13:58:25.959Z,5.0
2023-02-24T14:03:32.162Z,5.0
2023-02-24T14:08:38.364Z,5.0
2023-02-24T14:13:44.563Z,4.0
2023-02-24T14:18:50.769Z,4.0
2023-02-24T14:23:57.136Z,4.0
2023-02-24T14:29:03.302Z,4.0
2023-02-24T14:34:09.420Z,4.0
2023-02-24T14:39:15.992Z,5.0
2023-02-24T14:44:20.835Z,4.0
2023-02-24T14:49:27.305Z,5.0
2023-02-24T14:54:32.439Z,6.0
2023-02-24T14:59:38.644Z,6.0
2023-02-24T15:04:44.720Z,7.0
2023-02-24T15:09:50.910Z,5.0
2023-02-24T15:14:57.113Z,4.0
2023-02-24T15:20:03.328Z,2.0
2023-02-24T15:25:09.531Z,1.0
2023-02-24T15:30:15.732Z,1.0
2023-02-24T15:35:21.938Z,1.0
2023-02-24T15:40:28.180Z,2.0
2023-02-24T15:45:34.355Z,2.0
2023-02-24T15:50:40.753Z,2.0
2023-02-24T15:55:46.780Z,2.0
2023-02-24T16:00:53.023Z,2.0
2023-02-24T16:05:59.195Z,2.0
2023-02-24T16:11:05.429Z,2.0
2023-02-24T16:16:11.667Z,2.0
2023-02-24T16:21:17.913Z,3.0
2023-02-24T16:26:24.256Z,3.0
2023-02-24T16:31:30.395Z,3.0
2023-02-24T16:36:36.440Z,2.0
2023-02-24T16:41:41.847Z,2.0
2023-02-24T16:46:47.901Z,1.5
2023-02-24T16:51:54.085Z,2.0
2023-02-24T16:57:00.295Z,2.0
2023-02-24T17:02:06.496Z,1.0
2023-02-24T17:07:12.712Z,2.0
2023-02-24T17:12:21.343Z,2.0
2023-02-24T17:17:25.153Z,2.0
2023-02-24T17:22:31.490Z,2.0
2023-02-24T17:27:37.550Z,2.0
2023-02-24T17:32:43.886Z,1.0
2023-02-24T17:37:49.961Z,1.0
2023-02-24T17:42:56.170Z,1.0
2023-02-24T17:48:02.385Z,1.0
2023-02-24T17:53:08.582Z,1.0
2023-02-24T17:58:14.789Z,1.0
2023-02-24T18:03:21.129Z,1.0
2023-02-24T18:08:27.198Z,1.0
2023-02-24T18:13:33.405Z,1.0
2023-02-24T18:18:39.637Z,1.0
2023-02-24T18:23:45.824Z,1.0
2023-02-24T18:28:51.065Z,1.0
2023-02-24T18:33:57.274Z,1.0
2023-02-24T18:39:03.489Z,1.0
2023-02-24T18:44:09.682Z,1.0
2023-02-24T18:49:15.892Z,2.0
2023-02-24T18:54:22.101Z,2.0
2023-02-24T18:59:28.302Z,2.0
2023-02-24T19:04:34.523Z,2.0
2023-02-24T19:09:41.752Z,2.0
2023-02-24T19:14:46.931Z,2.0
2023-02-24T19:19:53.136Z,2.0
2023-02-24T19:24:59.358Z,2.0
2023-02-24T19:30:05.558Z,2.0
2023-02-24T19:35:11.768Z,2.0
2023-02-24T19:40:17.978Z,2.0
2023-02-24T19:45:24.169Z,2.0
2023-02-24T19:50:30.388Z,3.0
2023-02-24T19:55:36.596Z,2.0
2023-02-24T20:00:42.806Z,3.0
2023-02-24T20:05:49.003Z,3.0
2023-02-24T20:10:55.209Z,2.0
2023-02-24T20:16:00.450Z,3.0
2023-02-24T20:21:06.664Z,2.0
2023-02-24T20:26:11.894Z,2.0
2023-02-24T20:31:18.211Z,3.0
2023-02-24T20:36:24.768Z,3.0
2023-02-24T20:41:30.523Z,3.0
2023-02-24T20:46:35.766Z,3.0
2023-02-24T20:51:41.971Z,3.0
2023-02-24T20:56:48.204Z,3.0
2023-02-24T21:01:54.436Z,3.0
2023-02-24T21:07:00.587Z,4.0
2023-02-24T21:12:06.786Z,3.0
2023-02-24T21:17:13.016Z,3.0
2023-02-24T21:22:19.206Z,3.0
2023-02-24T21:27:25.416Z,3.0
2023-02-24T21:32:31.677Z,4.0
2023-02-24T21:37:37.827Z,3.0
2023-02-24T21:42:44.050Z,3.5
2023-02-24T21:47:50.248Z,4.0
2023-02-24T21:52:56.448Z,3.0
2023-02-24T21:58:02.673Z,4.0
2023-02-24T22:03:08.909Z,3.0
2023-02-24T22:08:15.073Z,3.0
2023-02-24T22:13:21.324Z,3.0
2023-02-24T22:18:27.477Z,3.0
2023-02-24T22:23:33.694Z,3.0
2023-02-24T22:28:39.906Z,3.0
2023-02-24T22:33:45.158Z,3.0
2023-02-24T22:38:51.344Z,2.5
2023-02-24T22:43:56.574Z,2.0
2023-02-24T22:49:02.815Z,2.0
2023-02-24T22:54:09.008Z,2.0
2023-02-24T22:59:15.198Z,2.0
2023-02-24T23:04:21.409Z,2.0
2023-02-24T23:09:27.618Z,2.0
2023-02-24T23:14:33.871Z,2.0
2023-02-24T23:19:40.045Z,2.0
2023-02-24T23:24:46.246Z,2.0
2023-02-24T23:29:52.455Z,2.0
2023-02-24T23:34:58.648Z,2.0
2023-02-24T23:40:04.860Z,2.0
2023-02-24T23:45:11.073Z,2.0
2023-02-24T23:50:17.276Z,2.0
2023-02-24T23:55:23.493Z,2.0
